createdAt,value
2023-02-03T00:02:40.787Z,-0.40
2023-02-03T00:12:46.101Z,-0.40
2023-02-03T00:22:50.292Z,-0.40
2023-02-03T00:32:55.715Z,-0.50
2023-02-03T00:42:59.677Z,-0.50
2023-02-03T00:53:04.985Z,-0.60
2023-02-03T01:03:08.867Z,-0.60
2023-02-03T01:13:14.273Z,-0.60
2023-02-03T01:23:18.141Z,-0.60
2023-02-03T01:33:23.291Z,-0.70
2023-02-03T01:43:32.167Z,-0.60
2023-02-03T01:53:39.533Z,-0.70
2023-02-03T02:03:50.154Z,-0.70
2023-02-03T02:13:58.996Z,-0.70
2023-02-03T02:24:45.076Z,-0.70
2023-02-03T02:34:59.700Z,-0.90
2023-02-03T02:45:13.135Z,-0.90
2023-02-03T02:55:24.791Z,-1.10
2023-02-03T03:05:31.317Z,-1.30
2023-02-03T03:15:39.953Z,-1.40
2023-02-03T03:25:49.663Z,-1.90
2023-02-03T03:36:02.523Z,-2.30
2023-02-03T03:46:14.697Z,-2.20
2023-02-03T03:56:26.803Z,-1.90
2023-02-03T04:06:30.667Z,-2.20
2023-02-03T04:16:37.771Z,-2.50
2023-02-03T04:26:41.851Z,-2.70
2023-02-03T04:36:47.041Z,-2.60
2023-02-03T04:46:50.847Z,-2.50
2023-02-03T04:56:56.032Z,-2.50
2023-02-03T05:07:00.154Z,-2.50
2023-02-03T05:17:05.460Z,-2.50
2023-02-03T05:27:09.230Z,-2.50
2023-02-03T05:37:14.475Z,-2.50
2023-02-03T05:47:18.351Z,-2.60
2023-02-03T05:57:23.472Z,-2.50
2023-02-03T06:07:27.280Z,-2.40
2023-02-03T06:17:33.964Z,-2.40
2023-02-03T06:27:37.753Z,-2.40
2023-02-03T06:37:43.128Z,-2.40
2023-02-03T06:47:47.630Z,-2.40
2023-02-03T06:57:53.451Z,-2.20
2023-02-03T07:07:57.631Z,-1.90
2023-02-03T07:18:02.767Z,-1.50
2023-02-03T07:28:06.891Z,-1.30
2023-02-03T07:38:12.366Z,-0.90
2023-02-03T07:48:16.499Z,-0.40
2023-02-03T07:58:21.900Z,-0.10
2023-02-03T08:08:25.649Z,-0.20
2023-02-03T08:18:32.630Z,-0.10
2023-02-03T08:28:36.396Z,0.00
2023-02-03T08:38:41.904Z,0.30
2023-02-03T08:48:45.494Z,0.70
2023-02-03T08:58:50.467Z,0.80
2023-02-03T09:08:53.995Z,0.80
2023-02-03T09:18:59.101Z,1.60
2023-02-03T09:29:02.722Z,2.00
2023-02-03T09:39:07.739Z,3.00
2023-02-03T09:49:19.236Z,3.00
2023-02-03T09:59:24.513Z,2.20
2023-02-03T10:09:44.131Z,2.10
2023-02-03T10:19:56.384Z,2.10
2023-02-03T10:30:06.160Z,2.10
2023-02-03T10:40:16.415Z,2.00
2023-02-03T10:50:23.872Z,1.80
2023-02-03T11:00:34.342Z,1.80
2023-02-03T11:10:40.999Z,1.40
2023-02-03T11:20:46.124Z,0.90
2023-02-03T11:30:57.956Z,0.80
2023-02-03T11:41:03.301Z,0.60
2023-02-03T11:51:21.664Z,0.30
2023-02-03T12:02:09.746Z,-0.20
2023-02-03T12:12:36.597Z,-0.30
2023-02-03T12:22:51.309Z,-0.20
2023-02-03T12:33:00.245Z,-0.10
2023-02-03T12:43:21.919Z,0.00
2023-02-03T12:53:31.531Z,0.20
2023-02-03T13:03:43.419Z,0.30
2023-02-03T13:13:51.572Z,0.30
2023-02-03T13:23:56.852Z,0.20
2023-02-03T13:34:18.617Z,0.20
2023-02-03T13:44:28.238Z,0.20
2023-02-03T13:54:37.357Z,0.20
2023-02-03T14:05:04.205Z,0.10
2023-02-03T14:15:32.334Z,0.00
2023-02-03T14:25:43.436Z,-0.10
2023-02-03T14:35:47.127Z,-0.30
2023-02-03T14:46:18.383Z,-0.40
2023-02-03T14:56:55.347Z,-0.40
2023-02-03T15:07:00.370Z,-0.30
2023-02-03T15:17:13.201Z,-0.30
2023-02-03T15:27:25.306Z,-0.30
2023-02-03T15:37:34.300Z,-0.20
2023-02-03T15:47:42.873Z,-0.20
2023-02-03T15:57:49.814Z,-0.10
2023-02-03T16:07:55.062Z,0.00
2023-02-03T16:17:59.349Z,0.10
2023-02-03T16:28:33.431Z,0.30
2023-02-03T16:38:54.691Z,0.70
2023-02-03T16:49:16.970Z,1.00
2023-02-03T16:59:21.993Z,1.20
2023-02-03T17:09:26.955Z,1.30
2023-02-03T17:19:30.622Z,1.50
2023-02-03T17:29:35.872Z,1.50
2023-02-03T18:00:26.046Z,1.60
2023-02-03T18:10:31.584Z,1.50
2023-02-03T18:20:36.179Z,1.40
2023-02-03T18:30:44.312Z,1.20
2023-02-03T18:40:48.095Z,1.10
2023-02-03T18:50:53.376Z,1.20
2023-02-03T19:00:59.202Z,1.30
2023-02-03T19:11:06.165Z,1.40
2023-02-03T19:21:11.195Z,1.50
2023-02-03T19:31:17.521Z,1.60
2023-02-03T19:41:21.821Z,1.70
2023-02-03T19:51:27.078Z,1.60
2023-02-03T20:01:32.473Z,1.60
2023-02-03T20:11:38.027Z,1.60
2023-02-03T20:21:42.523Z,1.30
2023-02-03T20:31:48.431Z,1.20
2023-02-03T20:41:52.516Z,1.30
2023-02-03T20:51:58.130Z,1.20
2023-02-03T21:02:11.170Z,1.20
2023-02-03T21:12:16.867Z,1.10
2023-02-03T21:22:24.311Z,1.00
2023-02-03T21:32:40.544Z,1.00
2023-02-03T21:42:46.043Z,0.90
2023-02-03T21:52:51.159Z,0.90
2023-02-03T22:03:00.456Z,0.90
2023-02-03T22:13:06.504Z,0.90
2023-02-03T22:23:10.326Z,0.90
2023-02-03T22:33:15.475Z,0.90
2023-02-03T22:43:19.247Z,0.90
2023-02-03T22:53:24.499Z,0.90
2023-02-03T23:03:32.217Z,0.90
2023-02-03T23:13:37.468Z,0.90
2023-02-03T23:23:41.548Z,1.00
2023-02-03T23:34:07.160Z,1.00
2023-02-03T23:44:11.139Z,1.00
2023-02-03T23:54:16.336Z,1.10
